Details From KTEX - Telluride Rgnl
To KLXV - LAKE CO
Flight Number -
Tags generated
Created
Modified
Stats Distance 107 nm / 197 km
Max Altitude 9,900 ft / 3,018 m
Waypoints 3
Social Downloads 0
Likes 0
Share VATSIM

Download

Looking for another format? Having issues loading an existing format? Contact us
Advertisement - Login to hide

Notes

Basic altitude profile: - Ascent Rate: 2500ft/min - Ascent Speed: 250kts - Cruise Altitude: 35000ft - Cruise Speed: 420kts - Descent Rate: 1500ft/min - Descent Speed: 250kts Options: - Use NATs: yes - Use PACOTS: yes - Use low airways: yes - Use high airways: yes

Route

KTEX WENDT KLXV

ID Type Via Altitude Latitude Longitude Leg Dist Tot Dist Heading (true) Name
O KTEX APT - 0 ft / 0 m 37.95381˚ -107.90874˚ - 0 nm - Telluride Rgnl
WENDT FIX - 9,900 ft / 3,018 m 38.66759˚ -107.00840˚ 60 nm 60 nm 44° / 45° -
O KLXV APT - 0 ft / 0 m 39.21947˚ -106.31644˚ 46 nm 106 nm 44° / 44° LAKE CO

Altitude Profile

Advertisement - Login to hide

KTEX

Details ICAO KTEX (TEX)
Name Telluride Rgnl
Region United States
Timezone America/Denver (UTC-7.0)
Stats Elevation 9,078 ft / 2,767 m (AMSL)
Location 37.953812° -107.908742°
Runways 1
Magnetic Variation 9.421° E

METAR

KTEX 131655Z AUTO 12003KT 10SM CLR 04/M18 A3030 RMK AO2 T00371177

Decode

TAF

KTEX 131129Z 1312/1412 13005KT P6SM SCT250 FM131900 27006KT P6SM FEW140 FEW200 FM140300 14004KT P6SM BKN110 BKN130 FM140700 31004KT P6SM SCT040 BKN045 FM141100 35005KT P6SM SCT025 BKN030

Decode

Departure Runways

ID Width Length Bearing (true) Bearing (mag) Surface Threshold Offset Overrun Length
09 98 ft / 30 m 7,095 ft / 2,163 m 104.96° 95.54° Asphalt 200 ft / 61 m 400 ft / 122 m
27 98 ft / 30 m 7,095 ft / 2,163 m 284.98° 275.56° Asphalt 200 ft / 61 m 400 ft / 122 m

KLXV

Details ICAO KLXV
Name LAKE CO
Region United States
Timezone America/Denver (UTC-7.0)
Stats Elevation 9,927 ft / 3,026 m (AMSL)
Location 39.219467° -106.316445°
Runways 1
Magnetic Variation 8.831° E

METAR

KLXV 131653Z AUTO 09004KT 10SM OVC075 M01/M16 A3027 RMK AO2 SLP203 T10061156

Decode

TAF

Not found

Destination Runways

ID Width Length Bearing (true) Bearing (mag) Surface Threshold Offset Overrun Length
16 75 ft / 23 m 6,411 ft / 1,954 m 170.29° 161.46° Asphalt 0 ft / 0 m 200 ft / 61 m
34 75 ft / 23 m 6,411 ft / 1,954 m 350.30° 341.47° Asphalt 0 ft / 0 m 0 ft / 0 m